Time;durP1;ratioP1;P1;durP2;ratioP2;P2;SDS_P1;SDS_P2;PMS_P1;PMS_P2;Temp;Humidity;BMP_temperature;BMP_pressure;BME280_temperature;BME280_humidity;BME280_pressure;Samples;Min_cycle;Max_cycle;Signal;HPM_P1;HPM_P2
2022/11/20 00:01:59;;;;;;;45.27;30.53;;;4.30;99.90;;;;;;5000038;28;20174;-82
2022/11/20 00:04:25;;;;;;;45.37;30.80;;;4.30;99.90;;;;;;5000402;28;20301;-81
2022/11/20 00:06:50;;;;;;;47.97;31.87;;;4.30;99.90;;;;;;5027268;28;20194;-82
2022/11/20 00:09:17;;;;;;;50.97;31.63;;;4.50;99.90;;;;;;5013277;28;20182;-81
2022/11/20 00:11:43;;;;;;;45.00;29.30;;;4.40;99.90;;;;;;5031098;28;20553;-80
2022/11/20 00:14:15;;;;;;;48.00;31.13;;;4.40;99.90;;;;;;5014889;28;20175;-81
2022/11/20 00:16:43;;;;;;;43.60;29.97;;;4.40;99.90;;;;;;5010165;28;20229;-89
2022/11/20 00:19:11;;;;;;;48.47;30.60;;;4.30;99.90;;;;;;5019582;28;20178;-89
2022/11/20 00:21:41;;;;;;;50.70;30.77;;;4.40;99.90;;;;;;5030445;28;20758;-92
2022/11/20 00:24:09;;;;;;;47.53;30.77;;;4.30;99.90;;;;;;5016246;28;20209;-83
2022/11/20 00:26:39;;;;;;;47.60;29.77;;;4.30;99.90;;;;;;5034922;28;20173;-88
2022/11/20 00:29:06;;;;;;;41.23;29.30;;;4.20;99.90;;;;;;5023848;28;20205;-89
2022/11/20 00:31:43;;;;;;;43.83;27.60;;;4.30;99.90;;;;;;5028236;28;20200;-92
2022/11/20 00:34:09;;;;;;;44.17;28.37;;;4.30;99.90;;;;;;5006997;28;20186;-85
2022/11/20 00:36:37;;;;;;;43.80;27.93;;;4.40;99.90;;;;;;5026340;28;20178;-91
2022/11/20 00:39:03;;;;;;;49.53;29.67;;;4.40;99.90;;;;;;5030006;28;20211;-87
2022/11/20 00:41:29;;;;;;;55.00;29.97;;;4.40;99.90;;;;;;5009745;28;20163;-89
2022/11/20 00:43:57;;;;;;;47.60;30.30;;;4.40;99.90;;;;;;5028041;28;20162;-92
2022/11/20 00:46:25;;;;;;;47.60;30.23;;;4.50;99.90;;;;;;5008446;28;20167;-91
2022/11/20 00:48:52;;;;;;;43.93;30.73;;;4.50;99.90;;;;;;5006697;28;20203;-90
2022/11/20 00:51:23;;;;;;;47.60;29.93;;;4.40;99.90;;;;;;5007215;28;20166;-91
2022/11/20 00:53:50;;;;;;;44.97;31.50;;;4.40;99.90;;;;;;5008696;28;20608;-89
2022/11/20 00:56:18;;;;;;;40.83;29.17;;;4.40;99.90;;;;;;5026843;28;20178;-91
2022/11/20 00:58:46;;;;;;;42.87;29.67;;;4.40;99.90;;;;;;5029049;28;20254;-90
2022/11/20 01:01:15;;;;;;;43.67;29.83;;;4.40;99.90;;;;;;5013291;28;20177;-90
2022/11/20 01:03:43;;;;;;;45.03;30.10;;;4.60;99.90;;;;;;5026765;28;20183;-88
2022/11/20 01:06:22;;;;;;;44.37;29.07;;;4.70;99.90;;;;;;5007650;28;20177;-84
2022/11/20 01:08:50;;;;;;;42.73;29.67;;;4.60;99.90;;;;;;5032233;28;20237;-81
2022/11/20 01:11:21;;;;;;;38.23;27.67;;;4.80;99.90;;;;;;5020818;28;20178;-90
2022/11/20 01:13:51;;;;;;;39.10;28.43;;;4.70;99.90;;;;;;5038082;28;20178;-90
2022/11/20 01:16:26;;;;;;;44.60;29.93;;;4.90;99.90;;;;;;5037405;28;20154;-87
2022/11/20 01:18:54;;;;;;;39.23;28.83;;;4.90;99.90;;;;;;5040613;28;20158;-82
2022/11/20 01:21:29;;;;;;;42.97;29.10;;;4.90;99.90;;;;;;5019752;28;20177;-91
2022/11/20 01:24:01;;;;;;;49.37;31.07;;;4.90;99.90;;;;;;5040757;28;20740;-82
2022/11/20 01:26:32;;;;;;;42.00;29.67;;;4.80;99.90;;;;;;5024603;28;20163;-82
2022/11/20 01:29:01;;;;;;;41.47;31.40;;;5.00;99.90;;;;;;5039333;28;20183;-91
2022/11/20 01:31:35;;;;;;;47.77;30.77;;;4.90;99.90;;;;;;5022180;28;20171;-86
2022/11/20 01:34:03;;;;;;;41.73;29.40;;;5.00;99.90;;;;;;5024446;28;20189;-84
2022/11/20 01:36:31;;;;;;;43.80;32.57;;;5.10;99.90;;;;;;5023617;28;20166;-88
2022/11/20 01:38:59;;;;;;;46.00;31.27;;;5.00;99.90;;;;;;5041314;28;20188;-87
2022/11/20 01:44:14;;;;;;;46.07;30.93;;;5.20;99.90;;;;;;5035514;28;20177;-81
2022/11/20 01:46:52;;;;;;;44.43;31.10;;;5.30;99.90;;;;;;5025270;28;20175;-83
2022/11/20 01:49:34;;;;;;;47.47;31.63;;;5.40;99.90;;;;;;5018821;28;20256;-86
2022/11/20 01:52:19;;;;;;;44.33;31.70;;;5.50;99.90;;;;;;4999406;28;20166;-81
2022/11/20 01:54:57;;;;;;;41.80;30.87;;;5.60;99.90;;;;;;5017068;28;20217;-82
2022/11/20 01:57:26;;;;;;;45.43;32.40;;;5.70;99.90;;;;;;5016755;28;20692;-82
2022/11/20 02:00:01;;;;;;;46.40;30.77;;;5.80;99.90;;;;;;4999683;28;20269;-81
2022/11/20 02:02:27;;;;;;;44.93;32.70;;;5.90;99.90;;;;;;5031935;28;20165;-80
2022/11/20 02:04:56;;;;;;;45.53;32.47;;;6.00;99.90;;;;;;5017735;28;20189;-84
2022/11/20 02:07:23;;;;;;;48.80;32.90;;;6.00;99.90;;;;;;5031478;28;20209;-81
2022/11/20 02:09:50;;;;;;;52.43;33.63;;;6.10;99.90;;;;;;5012087;28;20178;-81
2022/11/20 02:15:02;;;;;;;53.43;34.33;;;6.20;99.90;;;;;;5018957;28;20205;-80
2022/11/20 02:17:28;;;;;;;47.93;32.43;;;5.80;99.90;;;;;;5019731;28;20198;-81
2022/11/20 02:20:00;;;;;;;46.43;31.43;;;5.70;99.90;;;;;;5018730;28;20212;-80
2022/11/20 02:25:53;;;;;;;55.33;32.70;;;5.50;99.90;;;;;;5026684;28;20229;-80
2022/11/20 02:28:19;;;;;;;46.47;30.77;;;5.40;99.90;;;;;;5019409;28;20159;-82
2022/11/20 02:30:47;;;;;;;43.00;30.27;;;5.40;99.90;;;;;;5004141;28;20170;-82
2022/11/20 02:33:19;;;;;;;46.80;31.00;;;5.30;99.90;;;;;;5020592;28;20182;-79
2022/11/20 02:35:46;;;;;;;46.50;31.17;;;5.30;99.90;;;;;;5020043;28;20159;-80
2022/11/20 02:41:36;;;;;;;49.37;32.67;;;5.30;99.90;;;;;;5031108;28;20264;-80
2022/11/20 02:44:03;;;;;;;51.37;33.23;;;5.30;99.90;;;;;;5016049;28;20181;-80
2022/11/20 02:46:32;;;;;;;56.20;33.97;;;5.20;99.90;;;;;;5032530;28;20246;-78
2022/11/20 02:49:01;;;;;;;59.73;34.07;;;5.10;99.90;;;;;;5011098;28;20190;-80
2022/11/20 02:51:31;;;;;;;63.07;34.37;;;5.00;99.90;;;;;;5018764;28;20245;-81
2022/11/20 02:54:07;;;;;;;55.00;33.33;;;5.10;99.90;;;;;;5001080;28;20170;-80
2022/11/20 02:56:51;;;;;;;55.40;32.07;;;5.00;99.90;;;;;;5017436;28;20174;-80
2022/11/20 02:59:18;;;;;;;53.67;32.13;;;5.10;99.90;;;;;;5000022;28;20678;-80
2022/11/20 03:01:44;;;;;;;53.93;30.30;;;5.00;99.90;;;;;;5003071;28;20209;-82
2022/11/20 03:04:10;;;;;;;53.73;31.67;;;5.10;99.90;;;;;;5001416;28;20182;-81
2022/11/20 03:06:36;;;;;;;51.33;32.43;;;5.00;99.90;;;;;;5000453;28;20171;-82
2022/11/20 03:09:06;;;;;;;50.37;30.60;;;5.00;99.90;;;;;;5001269;28;20174;-79
2022/11/20 03:11:31;;;;;;;47.37;28.50;;;5.10;99.90;;;;;;5017957;28;20174;-80
2022/11/20 03:14:01;;;;;;;45.60;29.43;;;5.10;99.90;;;;;;5001371;28;20612;-89
2022/11/20 03:16:26;;;;;;;45.57;28.80;;;5.20;99.90;;;;;;5020538;28;20174;-89
2022/11/20 03:18:53;;;;;;;48.83;30.13;;;5.30;99.90;;;;;;5034626;28;20185;-87
2022/11/20 03:21:20;;;;;;;43.57;29.17;;;5.50;99.90;;;;;;5020739;28;20186;-86
2022/11/20 03:23:49;;;;;;;46.30;29.33;;;5.40;99.90;;;;;;5015395;28;20201;-90
2022/11/20 03:26:20;;;;;;;41.40;28.50;;;5.50;99.90;;;;;;5027243;28;20186;-92
2022/11/20 03:28:54;;;;;;;44.90;28.30;;;5.50;99.90;;;;;;4994016;28;20182;-85
2022/11/20 03:31:45;;;;;;;44.50;27.67;;;5.40;99.90;;;;;;5028382;28;20177;-84
2022/11/20 03:34:12;;;;;;;47.03;28.07;;;5.40;99.90;;;;;;5036958;28;20174;-89
2022/11/20 03:36:42;;;;;;;41.03;27.30;;;5.50;99.90;;;;;;4995036;28;20259;-88
2022/11/20 03:39:10;;;;;;;44.93;29.17;;;5.70;99.90;;;;;;5010949;28;20193;-90
2022/11/20 03:41:38;;;;;;;44.30;26.60;;;5.70;99.90;;;;;;5022205;28;20170;-88
2022/11/20 03:44:06;;;;;;;46.30;26.67;;;5.80;99.90;;;;;;5020669;28;20611;-90
2022/11/20 03:46:32;;;;;;;41.03;25.80;;;5.80;99.90;;;;;;5001942;28;20266;-91
2022/11/20 03:48:59;;;;;;;43.67;25.83;;;5.70;99.90;;;;;;5000984;28;20197;-91
2022/11/20 03:51:30;;;;;;;41.40;26.43;;;5.60;99.90;;;;;;5002881;28;20174;-91
2022/11/20 03:53:58;;;;;;;39.17;25.60;;;5.70;99.90;;;;;;5019584;28;20185;-91
2022/11/20 03:56:30;;;;;;;42.80;26.17;;;5.70;99.90;;;;;;5020346;28;20185;-90
2022/11/20 03:58:57;;;;;;;38.33;26.23;;;5.90;99.90;;;;;;5020879;28;20221;-90
2022/11/20 04:01:31;;;;;;;38.20;25.43;;;6.00;99.90;;;;;;5005245;28;20247;-90
2022/11/20 04:03:57;;;;;;;35.43;24.23;;;6.00;99.90;;;;;;5024827;28;20166;-90
2022/11/20 04:06:34;;;;;;;41.10;27.07;;;6.10;99.90;;;;;;5025251;28;20163;-89
2022/11/20 04:09:00;;;;;;;39.27;25.83;;;6.10;99.90;;;;;;5010287;28;20178;-78
2022/11/20 04:11:28;;;;;;;42.80;24.90;;;6.20;99.90;;;;;;5010519;28;20216;-82
2022/11/20 04:14:00;;;;;;;41.90;26.43;;;6.00;99.90;;;;;;5010455;28;20245;-79
2022/11/20 04:16:31;;;;;;;40.97;26.43;;;6.00;99.90;;;;;;5011740;28;20221;-79
2022/11/20 04:19:13;;;;;;;40.90;25.77;;;6.10;99.90;;;;;;4998200;28;20201;-78
2022/11/20 04:21:45;;;;;;;40.80;25.30;;;6.10;99.90;;;;;;5031177;28;20169;-80
2022/11/20 04:24:13;;;;;;;40.70;25.50;;;5.90;99.90;;;;;;5028971;28;20202;-79
2022/11/20 04:26:41;;;;;;;40.27;26.27;;;6.00;99.90;;;;;;5022983;28;20155;-83
2022/11/20 04:29:13;;;;;;;41.50;27.93;;;5.80;99.90;;;;;;5022911;28;20155;-81
2022/11/20 04:31:39;;;;;;;38.93;26.07;;;5.90;99.90;;;;;;5023284;28;20166;-81
2022/11/20 04:34:07;;;;;;;40.93;26.70;;;5.90;99.90;;;;;;5030368;28;20166;-81
2022/11/20 04:36:33;;;;;;;42.20;26.13;;;6.10;99.90;;;;;;5014647;28;20182;-80
2022/11/20 04:39:04;;;;;;;47.07;27.93;;;6.00;99.90;;;;;;5017799;28;20213;-80
2022/11/20 04:42:27;;;;;;;43.50;28.33;;;6.20;99.90;;;;;;5036307;28;20166;-81
2022/11/20 04:45:05;;;;;;;46.20;27.47;;;6.40;99.90;;;;;;5026680;28;20201;-80
2022/11/20 04:47:41;;;;;;;44.20;27.90;;;6.40;99.90;;;;;;5004370;28;20273;-82
2022/11/20 04:50:07;;;;;;;47.37;28.73;;;6.40;99.90;;;;;;4998441;28;20194;-85
2022/11/20 04:52:49;;;;;;;43.77;27.90;;;6.40;99.90;;;;;;5017482;28;20245;-85
2022/11/20 04:55:15;;;;;;;45.80;27.60;;;6.40;99.90;;;;;;5002639;28;20182;-83
2022/11/20 04:57:40;;;;;;;49.37;30.03;;;6.20;99.90;;;;;;5035925;28;20210;-81
2022/11/20 05:00:58;;;;;;;48.03;29.13;;;6.30;99.90;;;;;;5023828;28;20166;-78
2022/11/20 05:03:24;;;;;;;48.07;27.37;;;6.40;99.90;;;;;;5020188;28;20178;-81
2022/11/20 05:05:49;;;;;;;52.47;29.80;;;6.20;99.90;;;;;;5012758;28;20180;-81
2022/11/20 05:08:32;;;;;;;53.27;30.57;;;6.20;99.90;;;;;;5004299;28;20573;-80
2022/11/20 05:11:14;;;;;;;51.00;30.10;;;6.20;99.90;;;;;;5002836;28;20673;-84
2022/11/20 05:13:42;;;;;;;54.27;30.87;;;6.30;99.90;;;;;;5019159;28;20175;-81
2022/11/20 05:16:16;;;;;;;49.50;29.60;;;6.40;99.90;;;;;;5000067;28;20174;-82
2022/11/20 05:18:42;;;;;;;50.73;30.87;;;6.40;99.90;;;;;;5000332;28;20225;-81
2022/11/20 05:21:09;;;;;;;51.07;29.93;;;6.60;99.90;;;;;;5000316;28;20178;-84
2022/11/20 05:23:35;;;;;;;53.90;31.33;;;6.70;99.90;;;;;;5000882;28;20247;-83
2022/11/20 05:26:02;;;;;;;52.63;31.03;;;6.60;99.90;;;;;;5018091;28;20179;-87
2022/11/20 05:28:30;;;;;;;52.70;30.80;;;6.70;99.90;;;;;;4998858;28;20545;-81
2022/11/20 05:30:55;;;;;;;49.17;29.97;;;6.50;99.90;;;;;;4999219;28;20229;-81
2022/11/20 05:33:21;;;;;;;51.17;29.20;;;6.40;99.90;;;;;;5018430;28;20179;-82
2022/11/20 05:35:48;;;;;;;52.07;30.70;;;6.30;99.90;;;;;;5017096;28;20585;-82
2022/11/20 05:38:14;;;;;;;51.33;30.17;;;6.30;99.90;;;;;;4999692;28;20206;-82
2022/11/20 05:40:40;;;;;;;50.90;30.43;;;6.30;99.90;;;;;;5001241;28;20225;-83
2022/11/20 05:43:06;;;;;;;50.00;29.50;;;6.30;99.90;;;;;;5000974;28;20663;-81
2022/11/20 05:45:31;;;;;;;50.43;29.37;;;6.20;99.90;;;;;;5017127;28;20166;-80
2022/11/20 05:48:01;;;;;;;53.43;30.70;;;6.20;99.90;;;;;;5018994;28;20192;-79
2022/11/20 05:50:27;;;;;;;52.17;30.40;;;6.10;99.90;;;;;;5002249;28;20190;-79
2022/11/20 05:52:59;;;;;;;56.73;31.20;;;6.00;99.90;;;;;;5013521;28;20197;-79
2022/11/20 05:55:25;;;;;;;61.83;31.37;;;5.90;99.90;;;;;;5035563;28;20166;-81
2022/11/20 05:57:54;;;;;;;56.03;30.37;;;5.90;99.90;;;;;;5017280;28;20202;-80
2022/11/20 06:00:37;;;;;;;59.17;31.07;;;6.10;99.90;;;;;;4999130;28;20186;-80
2022/11/20 06:03:04;;;;;;;57.10;30.50;;;5.90;99.90;;;;;;4998801;28;20173;-81
2022/11/20 06:05:33;;;;;;;56.07;31.73;;;6.10;99.90;;;;;;4998947;28;20166;-81
2022/11/20 06:08:02;;;;;;;52.27;30.13;;;6.00;99.90;;;;;;4999275;28;20233;-80
2022/11/20 06:10:40;;;;;;;55.10;30.77;;;6.10;99.90;;;;;;4999173;28;20627;-88
2022/11/20 06:13:09;;;;;;;55.77;31.30;;;6.10;99.90;;;;;;5021825;28;20150;-91
2022/11/20 06:15:34;;;;;;;58.77;32.37;;;6.10;99.90;;;;;;5002039;28;20163;-89
2022/11/20 06:18:01;;;;;;;57.60;30.70;;;6.00;99.90;;;;;;5028041;28;20258;-86
2022/11/20 06:20:27;;;;;;;63.87;34.00;;;6.10;99.90;;;;;;5024076;28;20213;-90
2022/11/20 06:22:52;;;;;;;57.50;31.83;;;6.20;99.90;;;;;;5002258;28;20194;-90
2022/11/20 06:25:18;;;;;;;54.83;30.90;;;6.40;99.90;;;;;;5002578;28;20228;-91
2022/11/20 06:27:44;;;;;;;53.20;30.03;;;6.40;99.90;;;;;;5019731;28;20190;-90
2022/11/20 06:30:10;;;;;;;50.60;30.70;;;6.50;99.90;;;;;;5001784;28;20182;-84
2022/11/20 06:32:36;;;;;;;53.47;29.47;;;6.30;99.90;;;;;;5000138;28;20170;-81
2022/11/20 06:35:04;;;;;;;51.53;29.13;;;6.20;99.90;;;;;;5002472;28;20595;-83
2022/11/20 06:37:30;;;;;;;53.40;30.43;;;6.10;99.90;;;;;;5003651;28;20217;-80
2022/11/20 06:39:56;;;;;;;53.20;30.00;;;6.00;99.90;;;;;;5018624;28;20169;-80
2022/11/20 06:42:21;;;;;;;52.80;29.37;;;6.10;99.90;;;;;;4999515;28;20269;-80
2022/11/20 06:44:47;;;;;;;53.67;30.43;;;6.10;99.90;;;;;;5024708;28;20684;-83
2022/11/20 06:47:12;;;;;;;54.83;30.87;;;6.20;99.90;;;;;;5025029;28;20170;-81
2022/11/20 06:49:38;;;;;;;51.90;30.17;;;6.30;99.90;;;;;;5019456;28;20276;-81
2022/11/20 06:52:04;;;;;;;59.83;30.57;;;6.40;99.90;;;;;;4999144;28;20175;-81
2022/11/20 06:54:31;;;;;;;50.43;29.20;;;6.60;99.90;;;;;;4999168;28;20253;-80
2022/11/20 06:56:59;;;;;;;51.40;28.40;;;6.60;99.90;;;;;;5000711;28;20205;-82
2022/11/20 06:59:28;;;;;;;51.37;28.80;;;6.50;99.90;;;;;;4999208;28;20236;-82
2022/11/20 07:01:54;;;;;;;51.03;28.13;;;6.40;99.90;;;;;;5007852;28;20162;-82
2022/11/20 07:04:21;;;;;;;46.97;29.47;;;6.30;99.90;;;;;;5009508;28;20174;-82
2022/11/20 07:06:46;;;;;;;53.47;29.67;;;6.30;99.90;;;;;;5028713;28;20183;-80
2022/11/20 07:09:13;;;;;;;52.00;27.33;;;6.30;99.90;;;;;;5019956;28;20177;-81
2022/11/20 07:11:41;;;;;;;52.80;27.73;;;6.30;99.90;;;;;;5024086;28;20217;-82
2022/11/20 07:14:07;;;;;;;50.10;28.63;;;6.20;99.90;;;;;;5038279;28;20209;-79
2022/11/20 07:16:33;;;;;;;48.70;28.73;;;6.30;99.90;;;;;;5036059;28;20530;-80
2022/11/20 07:19:05;;;;;;;57.83;28.80;;;6.20;99.90;;;;;;5034833;28;20541;-81
2022/11/20 07:21:55;;;;;;;49.23;29.20;;;6.30;99.90;;;;;;5017979;28;20228;-82
2022/11/20 07:24:27;;;;;;;46.07;27.70;;;6.30;99.90;;;;;;5034964;28;20178;-80
2022/11/20 07:26:55;;;;;;;50.17;29.40;;;6.50;99.90;;;;;;5017534;28;20231;-80
2022/11/20 07:29:21;;;;;;;46.73;28.90;;;6.50;99.90;;;;;;5017553;28;20420;-86
2022/11/20 07:31:46;;;;;;;47.67;28.60;;;6.50;99.90;;;;;;5009470;28;20174;-81
2022/11/20 07:34:12;;;;;;;43.70;27.87;;;6.60;99.90;;;;;;5032061;28;20193;-81
2022/11/20 07:36:39;;;;;;;51.33;29.17;;;6.70;99.90;;;;;;5055291;28;20238;-82
2022/11/20 07:39:05;;;;;;;44.63;27.13;;;6.90;99.90;;;;;;5039518;28;20241;-83
2022/11/20 07:41:31;;;;;;;48.97;27.97;;;7.00;99.90;;;;;;5039086;28;20174;-82
2022/11/20 07:43:59;;;;;;;48.37;28.23;;;7.10;99.90;;;;;;5039737;28;20189;-80
2022/11/20 07:46:49;;;;;;;48.10;26.87;;;7.10;99.90;;;;;;5056954;28;20166;-80
2022/11/20 07:49:16;;;;;;;46.20;27.37;;;7.20;99.90;;;;;;5038556;28;20196;-80
2022/11/20 07:52:11;;;;;;;49.90;26.80;;;7.10;99.90;;;;;;4635353;28;11880418;-90
2022/11/20 07:54:48;;;;;;;50.17;27.30;;;7.10;99.90;;;;;;5035829;28;20188;-89
2022/11/20 07:57:20;;;;;;;46.13;25.27;;;7.00;99.90;;;;;;5038299;28;20217;-86
2022/11/20 07:59:55;;;;;;;49.47;26.90;;;7.00;99.90;;;;;;5058601;28;20173;-84
2022/11/20 08:02:22;;;;;;;49.23;27.53;;;7.00;99.90;;;;;;5041845;28;20165;-84
2022/11/20 08:04:55;;;;;;;50.03;26.30;;;7.10;99.90;;;;;;5058910;28;20188;-85
2022/11/20 08:14:12;;;;;;;44.53;25.83;;;7.20;99.90;;;;;;5055233;28;20157;-88
2022/11/20 08:16:47;;;;;;;44.60;24.47;;;7.20;99.90;;;;;;5052524;28;20315;-89
2022/11/20 08:19:16;;;;;;;44.40;25.23;;;7.30;99.90;;;;;;5038830;28;20185;-89
2022/11/20 08:21:49;;;;;;;44.00;24.43;;;7.30;99.90;;;;;;5055481;28;20172;-88
2022/11/20 08:24:37;;;;;;;47.27;25.13;;;7.40;99.90;;;;;;5037019;28;20193;-85
2022/11/20 08:27:32;;;;;;;41.60;24.63;;;7.60;99.90;;;;;;5042436;28;20158;-85
2022/11/20 08:30:23;;;;;;;47.50;25.80;;;7.50;99.90;;;;;;5046520;28;20225;-84
2022/11/20 08:33:30;;;;;;;44.07;25.63;;;7.50;99.90;;;;;;5041716;28;20182;-85
2022/11/20 08:36:42;;;;;;;47.30;24.60;;;7.40;99.90;;;;;;5008735;28;20192;-85
2022/11/20 08:42:08;;;;;;;46.33;24.67;;;7.30;99.90;;;;;;5478034;22;20229;-87
2022/11/20 08:44:39;;;;;;;45.87;25.30;;;7.30;99.90;;;;;;5239126;23;20237;-88
2022/11/20 08:47:06;;;;;;;47.27;25.40;;;7.40;99.90;;;;;;5022503;28;20178;-87
2022/11/20 08:49:46;;;;;;;44.00;25.60;;;7.40;99.90;;;;;;5040873;28;20225;-83
2022/11/20 08:52:30;;;;;;;45.33;25.43;;;7.40;99.90;;;;;;5004260;28;20183;-86
2022/11/20 08:55:12;;;;;;;45.67;26.37;;;7.40;99.90;;;;;;5007154;28;20198;-81
2022/11/20 08:57:38;;;;;;;45.27;25.90;;;7.50;99.90;;;;;;5027628;28;20285;-84
2022/11/20 09:00:06;;;;;;;46.37;25.10;;;7.50;99.90;;;;;;5029795;28;20175;-84
2022/11/20 09:02:35;;;;;;;50.10;25.50;;;7.50;99.90;;;;;;5001895;28;20201;-82
2022/11/20 09:05:19;;;;;;;44.20;25.40;;;7.60;99.90;;;;;;5016629;28;20197;-84
2022/11/20 09:07:46;;;;;;;47.83;26.17;;;7.60;99.90;;;;;;4960956;29;20164;-83
2022/11/20 09:10:12;;;;;;;50.87;25.70;;;7.50;99.90;;;;;;5007280;28;20182;-81
2022/11/20 09:12:48;;;;;;;42.97;25.27;;;7.60;99.90;;;;;;5030407;28;20190;-82
2022/11/20 09:15:20;;;;;;;41.67;24.83;;;7.60;99.90;;;;;;4998863;28;20194;-84
2022/11/20 09:18:04;;;;;;;40.23;24.17;;;7.60;99.90;;;;;;5007449;28;20222;-82
2022/11/20 09:20:49;;;;;;;43.33;23.97;;;7.50;99.90;;;;;;5016434;28;20190;-83
2022/11/20 09:23:34;;;;;;;38.73;23.33;;;7.60;99.90;;;;;;5036841;28;20205;-83
2022/11/20 09:26:12;;;;;;;43.93;23.17;;;7.70;99.90;;;;;;5018801;28;20269;-85
2022/11/20 09:29:05;;;;;;;36.33;21.23;;;7.70;99.90;;;;;;5034877;28;20162;-82
2022/11/20 09:31:31;;;;;;;36.10;22.60;;;7.80;99.90;;;;;;5011194;28;20159;-82
2022/11/20 09:34:35;;;;;;;39.13;23.47;;;7.80;99.90;;;;;;5017484;28;20154;-83
2022/11/20 09:37:20;;;;;;;38.47;22.77;;;7.90;99.90;;;;;;5024825;28;20256;-82
2022/11/20 09:39:49;;;;;;;35.63;23.07;;;8.00;99.90;;;;;;4993949;28;20632;-84
2022/11/20 09:42:37;;;;;;;35.93;22.77;;;8.00;99.90;;;;;;5027745;28;20185;-83
2022/11/20 09:45:35;;;;;;;34.87;22.40;;;8.00;99.90;;;;;;5014488;28;20194;-81
2022/11/20 09:48:21;;;;;;;37.60;22.27;;;8.10;99.90;;;;;;5030708;28;20486;-83
2022/11/20 09:50:58;;;;;;;34.20;21.10;;;8.20;99.90;;;;;;5028269;28;20198;-83
2022/11/20 09:53:59;;;;;;;33.33;20.17;;;8.20;99.90;;;;;;5012857;28;20177;-83
2022/11/20 09:56:39;;;;;;;30.40;20.00;;;8.30;99.90;;;;;;4992967;28;20203;-82
2022/11/20 09:59:39;;;;;;;32.13;19.83;;;8.50;99.90;;;;;;5046824;28;20219;-83
2022/11/20 10:05:21;;;;;;;31.77;19.00;;;8.50;99.90;;;;;;5089451;26;20247;-82
2022/11/20 10:07:56;;;;;;;27.23;19.00;;;8.50;99.90;;;;;;5067918;28;20252;-84
2022/11/20 10:10:34;;;;;;;29.30;18.50;;;8.50;99.90;;;;;;5065446;28;20251;-85
2022/11/20 10:13:18;;;;;;;30.40;17.53;;;8.60;99.90;;;;;;5046217;28;20221;-85
2022/11/20 10:15:47;;;;;;;24.33;16.47;;;8.80;99.90;;;;;;5060641;28;20617;-86
2022/11/20 10:18:30;;;;;;;26.97;16.97;;;8.80;99.90;;;;;;5063010;28;20519;-84
2022/11/20 10:21:33;;;;;;;24.30;15.30;;;8.80;99.90;;;;;;5083323;28;20167;-86
2022/11/20 10:24:33;;;;;;;20.17;13.23;;;8.90;99.90;;;;;;5046135;28;20651;-85
2022/11/20 10:27:39;;;;;;;18.80;11.90;;;9.10;99.90;;;;;;5064597;28;20180;-83
2022/11/20 10:30:13;;;;;;;19.17;10.83;;;9.00;99.90;;;;;;5044762;28;20179;-85
2022/11/20 10:32:47;;;;;;;21.93;10.20;;;9.10;99.90;;;;;;5051476;28;20180;-86
2022/11/20 10:36:14;;;;;;;14.47;8.47;;;9.10;99.90;;;;;;5061183;28;20183;-86
2022/11/20 10:39:12;;;;;;;15.03;9.10;;;9.10;99.90;;;;;;4993036;28;20213;-85
2022/11/20 10:41:53;;;;;;;14.13;9.00;;;9.30;99.90;;;;;;5038542;28;20176;-84
2022/11/20 10:45:02;;;;;;;13.13;7.80;;;9.40;99.90;;;;;;5053010;28;20180;-84
2022/11/20 10:47:34;;;;;;;13.43;7.27;;;9.50;99.90;;;;;;5063069;28;20209;-83
2022/11/20 10:50:09;;;;;;;15.33;7.73;;;9.50;99.90;;;;;;5040201;28;20168;-85
2022/11/20 10:52:57;;;;;;;12.17;6.53;;;9.50;99.30;;;;;;5040525;28;20175;-84
2022/11/20 10:55:38;;;;;;;14.83;7.00;;;9.50;98.70;;;;;;5078742;28;20160;-83
2022/11/20 10:58:11;;;;;;;11.40;6.50;;;9.50;97.90;;;;;;5059972;28;20216;-83
2022/11/20 11:00:36;;;;;;;13.67;6.10;;;9.50;97.50;;;;;;5078097;28;20154;-83
2022/11/20 11:03:02;;;;;;;13.40;6.40;;;9.50;97.10;;;;;;5046202;28;20273;-84
2022/11/20 11:06:06;;;;;;;11.13;5.47;;;9.50;96.70;;;;;;5059307;28;20177;-86
2022/11/20 11:08:37;;;;;;;13.00;5.70;;;9.60;96.50;;;;;;5040087;28;20168;-84
2022/11/20 11:11:32;;;;;;;11.53;5.93;;;9.60;96.20;;;;;;5040841;28;20169;-86
2022/11/20 11:14:10;;;;;;;9.40;4.97;;;9.50;96.30;;;;;;5057184;28;20198;-85
2022/11/20 11:16:51;;;;;;;14.57;5.73;;;9.50;96.30;;;;;;5039446;28;20653;-85
2022/11/20 11:19:16;;;;;;;12.50;5.80;;;9.70;95.90;;;;;;5040549;28;20259;-85
2022/11/20 11:21:54;;;;;;;10.50;5.30;;;9.70;95.10;;;;;;5040329;28;20224;-86
2022/11/20 11:24:27;;;;;;;8.17;5.20;;;9.80;93.00;;;;;;5044841;28;20177;-85
2022/11/20 11:27:10;;;;;;;12.57;5.27;;;9.80;93.30;;;;;;5062781;28;20164;-84
2022/11/20 11:29:36;;;;;;;9.47;4.63;;;9.70;93.60;;;;;;5042833;28;20177;-84
2022/11/20 11:32:12;;;;;;;9.83;5.10;;;9.80;94.00;;;;;;5056905;28;20172;-84
2022/11/20 11:34:38;;;;;;;9.73;4.50;;;9.70;93.50;;;;;;5060520;28;20280;-85
2022/11/20 11:37:10;;;;;;;7.30;4.20;;;9.60;94.10;;;;;;5051287;28;20226;-83
2022/11/20 11:39:44;;;;;;;8.70;4.97;;;9.60;94.90;;;;;;5049583;28;20180;-82
2022/11/20 11:42:20;;;;;;;8.70;4.17;;;9.60;95.90;;;;;;5042010;28;20633;-86
2022/11/20 11:45:05;;;;;;;7.43;4.40;;;9.50;97.10;;;;;;5057395;28;20167;-85
2022/11/20 11:47:32;;;;;;;9.63;4.93;;;9.60;98.20;;;;;;5044959;28;20173;-82
2022/11/20 11:50:26;;;;;;;8.87;4.13;;;9.60;98.90;;;;;;5046029;28;20712;-83
2022/11/20 11:53:01;;;;;;;10.20;4.50;;;9.50;99.50;;;;;;5044470;28;20196;-85
2022/11/20 11:55:48;;;;;;;9.23;4.23;;;9.50;99.90;;;;;;5042904;28;20720;-82
2022/11/20 11:58:51;;;;;;;10.87;4.77;;;9.50;99.90;;;;;;5041882;28;20700;-84
2022/11/20 12:01:44;;;;;;;7.70;4.57;;;9.60;99.90;;;;;;5053833;28;20239;-83
2022/11/20 12:04:40;;;;;;;10.60;4.80;;;9.50;99.90;;;;;;5035891;28;20615;-84
2022/11/20 12:07:40;;;;;;;7.20;3.70;;;9.40;99.90;;;;;;5059391;28;20525;-82
2022/11/20 12:10:15;;;;;;;10.83;3.97;;;9.30;99.90;;;;;;5040565;28;20254;-82
2022/11/20 12:12:50;;;;;;;9.77;3.77;;;9.20;99.90;;;;;;5040468;28;20177;-82
2022/11/20 12:15:25;;;;;;;6.77;3.50;;;9.20;99.90;;;;;;5012795;28;20201;-82
2022/11/20 12:18:20;;;;;;;10.73;3.83;;;9.20;99.90;;;;;;5047899;28;20184;-80
2022/11/20 12:21:24;;;;;;;8.93;3.93;;;9.10;99.90;;;;;;5018885;28;20189;-85
2022/11/20 12:24:18;;;;;;;10.93;4.13;;;9.20;99.90;;;;;;5050904;28;20184;-81
2022/11/20 12:27:02;;;;;;;10.17;4.17;;;9.20;99.90;;;;;;5040165;28;20656;-85
2022/11/20 12:30:35;;;;;;;;;;;;;;;;;;;;;
2022/11/20 12:45:18;;;;;;;8.83;3.53;;;9.10;99.90;;;;;;5035445;28;20173;-85
2022/11/20 12:56:42;;;;;;;6.60;3.73;;;9.20;99.90;;;;;;5076586;23;20240;-83
2022/11/20 12:59:32;;;;;;;9.17;3.63;;;9.20;99.90;;;;;;5041632;28;20935;-84
2022/11/20 13:03:00;;;;;;;5.67;3.60;;;9.30;99.90;;;;;;5046269;28;20174;-86
2022/11/20 13:12:06;;;;;;;6.93;3.63;;;9.20;99.90;;;;;;5023611;28;20189;-84
2022/11/20 13:15:04;;;;;;;9.80;3.90;;;9.20;99.90;;;;;;5016445;28;20178;-86
2022/11/20 13:18:00;;;;;;;5.57;3.13;;;9.10;99.90;;;;;;5033003;28;20203;-85
2022/11/20 13:20:51;;;;;;;5.73;3.70;;;9.10;99.90;;;;;;5033528;28;20216;-83
2022/11/20 13:23:28;;;;;;;7.67;3.40;;;9.00;99.90;;;;;;5010089;28;20193;-86
2022/11/20 13:26:21;;;;;;;7.13;3.43;;;9.10;99.90;;;;;;5019978;28;20197;-83
2022/11/20 13:28:59;;;;;;;7.27;4.03;;;9.00;99.90;;;;;;5025719;28;20262;-87
2022/11/20 13:31:43;;;;;;;6.40;3.83;;;8.90;99.90;;;;;;5053998;28;20185;-89
2022/11/20 13:34:25;;;;;;;5.70;3.63;;;8.90;99.90;;;;;;5038781;28;20189;-85
2022/11/20 13:36:55;;;;;;;5.50;3.27;;;8.90;99.90;;;;;;5044157;28;20244;-83
2022/11/20 13:39:36;;;;;;;6.90;2.97;;;8.90;99.90;;;;;;5041646;28;20233;-85
2022/11/20 13:50:35;;;;;;;6.63;2.93;;;8.80;99.90;;;;;;5057033;28;20208;-84
2022/11/20 13:56:53;;;;;;;5.27;2.70;;;8.80;99.90;;;;;;5054569;28;20641;-87
2022/11/20 13:59:57;;;;;;;3.77;2.73;;;8.80;99.90;;;;;;5046024;28;20213;-87
2022/11/20 14:02:30;;;;;;;3.33;2.47;;;8.80;99.90;;;;;;5053322;28;20145;-86
2022/11/20 14:04:59;;;;;;;3.47;2.40;;;8.80;99.90;;;;;;5053906;28;20165;-87
2022/11/20 14:07:54;;;;;;;4.57;3.23;;;8.80;99.90;;;;;;5047949;28;20173;-88
2022/11/20 14:10:28;;;;;;;5.23;2.70;;;9.00;99.90;;;;;;5040217;28;20184;-84
2022/11/20 14:12:55;;;;;;;4.87;2.80;;;8.90;99.90;;;;;;5060692;28;20170;-83
2022/11/20 14:15:25;;;;;;;5.43;2.87;;;8.90;99.90;;;;;;5059423;28;20224;-84
2022/11/20 14:17:50;;;;;;;4.53;2.50;;;8.90;99.90;;;;;;5044748;28;20228;-80
2022/11/20 14:20:22;;;;;;;4.87;2.70;;;8.90;99.90;;;;;;5052494;28;20197;-84
2022/11/20 14:22:54;;;;;;;5.60;2.80;;;8.80;99.90;;;;;;5075291;23;20238;-83
2022/11/20 14:25:30;;;;;;;4.67;2.40;;;8.80;99.90;;;;;;5020183;28;20220;-81